createdAt,value
2017-11-18T12:53:42.342Z,116.00
2017-11-18T12:54:42.316Z,112.00
2017-11-18T12:55:42.275Z,112.00
2017-11-18T12:56:42.244Z,92.00
2017-11-18T12:57:42.207Z,68.00
2017-11-18T12:58:42.183Z,48.00
2017-11-18T12:59:42.148Z,72.00
2017-11-18T13:00:42.209Z,76.00
2017-11-18T13:01:42.105Z,60.00
2017-11-18T13:02:42.069Z,92.00
2017-11-18T13:03:42.026Z,92.00
2017-11-18T13:04:42.006Z,92.00
2017-11-18T13:05:41.975Z,92.00
2017-11-18T13:06:41.946Z,84.00
2017-11-18T13:07:41.916Z,56.00
2017-11-18T13:08:41.892Z,52.00
2017-11-18T13:09:41.869Z,44.00
2017-11-18T13:10:41.837Z,52.00
2017-11-18T13:11:41.815Z,48.00
2017-11-18T13:12:41.782Z,52.00
2017-11-18T13:13:41.761Z,64.00
2017-11-18T13:14:41.735Z,64.00
2017-11-18T13:15:41.711Z,96.00
2017-11-18T13:16:41.687Z,120.00
2017-11-18T13:17:41.659Z,92.00
2017-11-18T13:18:41.629Z,96.00
2017-11-18T13:19:41.610Z,108.00
2017-11-18T13:20:41.579Z,116.00
2017-11-18T13:21:41.556Z,116.00
2017-11-18T13:22:41.562Z,132.00
2017-11-18T13:23:41.501Z,172.00
2017-11-18T13:24:41.478Z,168.00
2017-11-18T13:25:41.468Z,140.00
2017-11-18T13:27:41.402Z,180.00
2017-11-18T13:28:41.380Z,252.00
2017-11-18T13:29:41.352Z,232.00
2017-11-18T13:30:41.333Z,200.00
2017-11-18T13:31:41.300Z,240.00
2017-11-18T13:32:41.278Z,172.00
2017-11-18T13:33:41.253Z,176.00
2017-11-18T13:34:41.228Z,212.00
2017-11-18T13:35:41.211Z,152.00
2017-11-18T13:36:41.211Z,204.00
2017-11-18T13:37:41.158Z,176.00
2017-11-18T13:38:41.164Z,180.00
2017-11-18T13:39:41.100Z,172.00
2017-11-18T13:40:41.079Z,188.00
2017-11-18T13:41:41.053Z,140.00
2017-11-18T13:42:41.037Z,108.00
2017-11-18T13:43:41.013Z,112.00
2017-11-18T13:44:40.996Z,116.00
2017-11-18T13:45:40.960Z,104.00
2017-11-18T13:46:40.927Z,84.00
2017-11-18T13:47:40.905Z,72.00
2017-11-18T13:48:40.880Z,48.00
2017-11-18T13:49:40.857Z,56.00
2017-11-18T13:50:40.839Z,80.00
2017-11-18T13:51:40.806Z,96.00
2017-11-18T13:52:40.783Z,100.00
2017-11-18T13:53:40.763Z,100.00
2017-11-18T13:54:40.737Z,100.00
2017-11-18T13:55:40.706Z,96.00
2017-11-18T13:56:40.685Z,100.00
2017-11-18T13:57:40.655Z,112.00
2017-11-18T13:58:40.636Z,112.00
2017-11-18T13:59:40.607Z,108.00
2017-11-18T14:00:40.585Z,120.00
2017-11-18T14:01:40.563Z,144.00
2017-11-18T14:02:40.539Z,152.00
2017-11-18T14:03:40.535Z,152.00
2017-11-18T14:04:40.488Z,164.00
2017-11-18T14:05:40.467Z,140.00
2017-11-18T14:06:40.448Z,112.00
2017-11-18T14:07:40.418Z,108.00
2017-11-18T14:08:40.386Z,96.00
2017-11-18T14:10:40.358Z,64.00
2017-11-18T14:11:40.317Z,56.00
2017-11-18T14:12:40.293Z,60.00
2017-11-18T14:13:40.267Z,56.00
2017-11-18T14:14:40.246Z,40.00
2017-11-18T14:15:40.238Z,36.00
2017-11-18T14:16:40.198Z,36.00
2017-11-18T14:17:40.169Z,40.00
2017-11-18T14:18:40.150Z,52.00
2017-11-18T14:19:40.125Z,40.00
2017-11-18T14:20:40.095Z,32.00
2017-11-18T14:21:40.070Z,32.00
2017-11-18T14:22:40.057Z,28.00
2017-11-18T14:23:40.021Z,32.00
2017-11-18T14:24:40.006Z,32.00
2017-11-18T14:25:39.974Z,36.00
2017-11-18T14:26:39.945Z,28.00
2017-11-18T14:27:39.930Z,24.00
2017-11-18T14:28:39.901Z,20.00
2017-11-18T14:29:39.883Z,12.00
2017-11-18T14:30:39.852Z,8.00
2017-11-18T14:31:39.823Z,8.00
2017-11-18T14:32:39.808Z,12.00
2017-11-18T14:33:39.784Z,16.00
2017-11-18T14:34:39.758Z,20.00
2017-11-18T14:35:39.745Z,24.00
2017-11-18T14:36:39.705Z,20.00
2017-11-18T14:37:39.688Z,16.00
2017-11-18T14:38:39.657Z,16.00
2017-11-18T14:39:39.626Z,16.00
2017-11-18T14:40:39.601Z,16.00
2017-11-18T14:41:39.576Z,16.00
2017-11-18T14:42:39.562Z,12.00
2017-11-18T14:43:39.528Z,12.00
2017-11-18T14:44:39.515Z,12.00
2017-11-18T14:45:39.482Z,12.00
2017-11-18T14:46:39.468Z,12.00
2017-11-18T14:47:39.432Z,12.00
2017-11-18T14:48:39.412Z,8.00
2017-11-18T14:49:39.380Z,12.00
2017-11-18T14:50:39.356Z,12.00
2017-11-18T14:51:39.337Z,12.00
2017-11-18T14:52:39.317Z,12.00
2017-11-18T14:53:39.282Z,16.00
2017-11-18T14:54:39.261Z,12.00
2017-11-18T14:55:39.239Z,16.00
2017-11-18T14:56:39.208Z,16.00
2017-11-18T14:57:39.182Z,16.00
2017-11-18T14:58:39.156Z,12.00
2017-11-18T14:59:39.134Z,16.00
2017-11-18T15:00:39.104Z,16.00
2017-11-18T15:01:39.134Z,12.00
2017-11-18T15:02:39.069Z,12.00
2017-11-18T15:03:39.034Z,12.00
2017-11-18T15:04:39.018Z,16.00
2017-11-18T15:05:38.984Z,12.00
2017-11-18T15:06:38.963Z,16.00
2017-11-18T15:07:38.937Z,16.00
2017-11-18T15:08:38.908Z,12.00
2017-11-18T15:09:38.879Z,12.00
2017-11-18T15:10:38.872Z,8.00
2017-11-18T15:11:38.837Z,8.00
2017-11-18T15:12:38.804Z,4.00
2017-11-18T15:13:38.786Z,4.00
2017-11-18T15:14:38.755Z,4.00
2017-11-18T15:15:38.732Z,4.00
2017-11-18T15:16:38.717Z,4.00
2017-11-18T15:17:38.687Z,4.00
2017-11-18T15:18:38.664Z,4.00
2017-11-18T15:19:38.633Z,4.00
2017-11-18T15:20:38.607Z,4.00
2017-11-18T15:21:38.583Z,4.00
2017-11-18T15:22:38.557Z,8.00
2017-11-18T15:23:38.528Z,4.00
2017-11-18T15:24:38.538Z,4.00
2017-11-18T15:25:38.483Z,4.00
2017-11-18T15:26:38.467Z,4.00
2017-11-18T15:27:38.440Z,4.00
2017-11-18T15:28:38.405Z,4.00
2017-11-18T15:29:38.386Z,0.00
2017-11-18T15:30:38.356Z,4.00
2017-11-18T15:31:38.331Z,4.00
2017-11-18T15:32:38.304Z,0.00
2017-11-18T15:33:38.286Z,4.00
2017-11-18T15:34:38.256Z,4.00
2017-11-18T15:35:38.249Z,0.00
2017-11-18T15:36:38.206Z,0.00
2017-11-18T15:37:38.176Z,0.00
2017-11-18T15:38:38.157Z,4.00
2017-11-18T15:39:38.132Z,4.00
2017-11-18T15:40:38.105Z,4.00
2017-11-18T15:41:38.078Z,0.00
2017-11-18T15:42:38.059Z,0.00
2017-11-18T15:43:38.033Z,0.00
2017-11-18T15:44:38.016Z,4.00
2017-11-18T15:45:37.990Z,0.00
2017-11-18T15:46:37.953Z,0.00
2017-11-18T15:47:37.928Z,0.00
2017-11-18T15:48:37.908Z,0.00
2017-11-18T15:49:37.887Z,0.00
2017-11-18T15:50:37.860Z,0.00
2017-11-18T15:51:37.833Z,0.00
2017-11-18T15:52:37.821Z,0.00
2017-11-18T15:53:37.776Z,0.00
2017-11-18T15:54:37.755Z,0.00
2017-11-18T15:55:37.728Z,0.00
2017-11-18T15:56:37.714Z,0.00
2017-11-18T15:57:37.693Z,0.00
2017-11-18T15:58:37.659Z,0.00
2017-11-18T15:59:37.629Z,0.00
2017-11-18T16:00:37.626Z,0.00
2017-11-18T16:01:37.590Z,0.00
2017-11-18T16:02:37.556Z,0.00
2017-11-18T16:03:37.525Z,0.00
2017-11-18T16:04:37.513Z,0.00
2017-11-18T16:05:37.481Z,0.00
2017-11-18T16:06:37.456Z,0.00
2017-11-18T16:07:37.455Z,0.00
2017-11-18T16:08:37.409Z,0.00
2017-11-18T16:09:37.375Z,0.00
2017-11-18T16:10:37.364Z,0.00
2017-11-18T16:11:37.330Z,0.00
2017-11-18T16:12:37.302Z,0.00
2017-11-18T16:13:37.288Z,0.00
2017-11-18T16:14:37.265Z,0.00
2017-11-18T16:15:37.232Z,0.00
2017-11-18T16:16:37.205Z,0.00
2017-11-18T16:17:37.175Z,0.00
2017-11-18T16:18:37.153Z,0.00
2017-11-18T16:19:37.128Z,0.00
2017-11-18T16:20:37.097Z,0.00
2017-11-18T16:21:37.083Z,0.00
2017-11-18T16:22:37.053Z,0.00
2017-11-18T16:23:37.025Z,0.00
2017-11-18T16:24:37.001Z,0.00
2017-11-18T16:25:36.984Z,0.00
2017-11-18T16:26:36.949Z,0.00
2017-11-18T16:27:36.926Z,0.00
2017-11-18T16:28:36.920Z,0.00
2017-11-18T16:29:36.878Z,0.00
2017-11-18T16:30:36.857Z,0.00
2017-11-18T16:31:36.830Z,0.00
2017-11-18T16:32:36.800Z,0.00
2017-11-18T16:33:36.770Z,0.00
2017-11-18T16:34:36.754Z,0.00
2017-11-18T16:35:36.727Z,0.00
2017-11-18T16:36:36.701Z,0.00
2017-11-18T16:37:36.680Z,0.00
2017-11-18T16:38:36.650Z,0.00
2017-11-18T16:39:36.620Z,0.00
2017-11-18T16:40:36.599Z,0.00
2017-11-18T16:41:36.576Z,0.00
2017-11-18T16:42:36.548Z,0.00
2017-11-18T16:43:36.526Z,0.00
2017-11-18T16:44:36.492Z,0.00
2017-11-18T16:45:36.470Z,0.00
2017-11-18T16:46:36.453Z,0.00
2017-11-18T16:47:36.419Z,0.00
2017-11-18T16:48:36.398Z,0.00
2017-11-18T16:49:36.375Z,0.00
2017-11-18T16:50:36.344Z,0.00
2017-11-18T16:51:36.325Z,0.00
2017-11-18T16:52:36.294Z,0.00
2017-11-18T16:53:36.280Z,0.00
2017-11-18T16:54:36.248Z,0.00
2017-11-18T16:55:36.226Z,0.00
2017-11-18T16:56:36.197Z,0.00
2017-11-18T16:57:36.176Z,0.00
2017-11-18T16:58:36.152Z,0.00
2017-11-18T16:59:36.131Z,0.00
2017-11-18T17:00:36.105Z,0.00
2017-11-18T17:01:36.067Z,0.00
2017-11-18T17:02:36.049Z,0.00
2017-11-18T17:03:36.025Z,0.00
2017-11-18T17:04:35.994Z,0.00
2017-11-18T17:05:35.967Z,0.00
2017-11-18T17:06:35.947Z,0.00
2017-11-18T17:07:35.926Z,0.00
2017-11-18T17:08:35.905Z,0.00
2017-11-18T17:09:35.866Z,0.00
2017-11-18T17:10:35.853Z,0.00
2017-11-18T17:11:35.816Z,0.00
2017-11-18T17:12:35.802Z,0.00
2017-11-18T17:13:35.772Z,0.00
2017-11-18T17:14:35.744Z,0.00
2017-11-18T17:15:35.717Z,0.00
2017-11-18T17:16:35.696Z,0.00
2017-11-18T17:17:35.681Z,0.00
2017-11-18T17:18:35.663Z,0.00
2017-11-18T17:19:35.629Z,0.00
2017-11-18T17:20:35.590Z,0.00
2017-11-18T17:21:35.574Z,0.00
2017-11-18T17:22:35.557Z,0.00
2017-11-18T17:23:35.517Z,0.00
2017-11-18T17:24:35.499Z,0.00
2017-11-18T17:25:35.478Z,0.00
2017-11-18T17:26:35.452Z,0.00
2017-11-18T17:27:35.414Z,0.00
2017-11-18T17:28:35.390Z,0.00
2017-11-18T17:29:35.368Z,0.00
2017-11-18T17:30:35.341Z,0.00
2017-11-18T17:31:35.315Z,0.00
2017-11-18T17:32:35.298Z,0.00
2017-11-18T17:33:35.264Z,0.00
2017-11-18T17:34:35.241Z,0.00
2017-11-18T17:35:35.220Z,0.00
2017-11-18T17:36:35.187Z,0.00
2017-11-18T17:37:35.163Z,0.00
2017-11-18T17:38:35.147Z,0.00
2017-11-18T17:39:35.116Z,0.00
2017-11-18T17:40:35.092Z,0.00
2017-11-18T17:41:35.067Z,0.00
2017-11-18T17:42:35.036Z,0.00
2017-11-18T17:43:35.014Z,0.00
2017-11-18T17:44:34.995Z,0.00
2017-11-18T17:45:34.964Z,0.00
2017-11-18T17:46:34.967Z,0.00
2017-11-18T17:47:34.921Z,0.00
2017-11-18T17:48:34.886Z,0.00
2017-11-18T17:49:34.860Z,0.00
2017-11-18T17:50:34.836Z,0.00
2017-11-18T17:51:34.813Z,0.00
2017-11-18T17:52:34.784Z,0.00
2017-11-18T17:53:34.776Z,0.00
2017-11-18T17:54:34.738Z,0.00
2017-11-18T17:55:34.734Z,0.00
2017-11-18T17:56:34.687Z,0.00
2017-11-18T17:57:34.661Z,0.00
2017-11-18T17:58:34.636Z,0.00
2017-11-18T17:59:34.608Z,0.00
2017-11-18T18:00:34.582Z,0.00
2017-11-18T18:01:34.557Z,0.00
2017-11-18T18:02:34.537Z,0.00
2017-11-18T18:03:34.518Z,0.00
2017-11-18T18:04:34.481Z,0.00
2017-11-18T18:05:34.474Z,0.00
2017-11-18T18:06:34.438Z,0.00
2017-11-18T18:07:34.411Z,0.00
2017-11-18T18:08:34.382Z,0.00
2017-11-18T18:09:34.361Z,0.00
2017-11-18T18:10:34.337Z,0.00
2017-11-18T18:11:34.311Z,0.00
2017-11-18T18:12:34.290Z,0.00
2017-11-18T18:13:34.261Z,0.00
2017-11-18T18:14:34.239Z,0.00
2017-11-18T18:15:34.209Z,0.00
2017-11-18T18:16:34.185Z,0.00
2017-11-18T18:17:34.170Z,0.00
2017-11-18T18:18:34.149Z,0.00
2017-11-18T18:19:34.107Z,0.00
2017-11-18T18:20:34.091Z,0.00
2017-11-18T18:21:34.053Z,0.00
2017-11-18T18:22:34.028Z,0.00
2017-11-18T18:23:34.011Z,0.00
2017-11-18T18:24:33.981Z,0.00
2017-11-18T18:25:33.960Z,0.00
2017-11-18T18:26:33.927Z,0.00
2017-11-18T18:27:33.900Z,0.00
2017-11-18T18:28:33.885Z,0.00
2017-11-18T18:29:33.868Z,0.00
2017-11-18T18:30:33.850Z,0.00
2017-11-18T18:31:33.822Z,0.00
2017-11-18T18:32:33.774Z,0.00
2017-11-18T18:33:33.777Z,0.00
2017-11-18T18:34:33.727Z,0.00
2017-11-18T18:35:33.712Z,0.00
2017-11-18T18:36:33.700Z,0.00
2017-11-18T18:37:33.657Z,0.00
2017-11-18T18:38:33.627Z,0.00
2017-11-18T18:39:33.599Z,0.00
2017-11-18T18:40:33.579Z,0.00
2017-11-18T18:41:33.558Z,0.00
2017-11-18T18:42:33.532Z,0.00
2017-11-18T18:43:33.497Z,0.00
2017-11-18T18:44:33.474Z,0.00
2017-11-18T18:45:33.447Z,0.00
2017-11-18T18:46:33.426Z,0.00
2017-11-18T18:47:33.400Z,0.00
2017-11-18T18:48:33.386Z,0.00
2017-11-18T18:49:33.348Z,0.00
2017-11-18T18:50:33.322Z,0.00
2017-11-18T18:51:33.316Z,0.00
2017-11-18T18:52:33.285Z,0.00
2017-11-18T18:53:33.250Z,0.00
2017-11-18T18:54:33.236Z,0.00
2017-11-18T18:55:33.216Z,0.00
2017-11-18T18:56:33.177Z,0.00
2017-11-18T18:57:33.147Z,0.00
2017-11-18T18:58:33.130Z,0.00
2017-11-18T18:59:33.110Z,0.00
2017-11-18T19:00:33.073Z,0.00
2017-11-18T19:01:33.052Z,0.00
2017-11-18T19:02:33.036Z,0.00
2017-11-18T19:03:33.006Z,0.00
2017-11-18T19:04:32.970Z,0.00
2017-11-18T19:05:32.947Z,0.00
2017-11-18T19:06:32.926Z,0.00
2017-11-18T19:07:32.904Z,0.00
2017-11-18T19:08:32.881Z,0.00
2017-11-18T19:09:32.846Z,0.00
2017-11-18T19:10:32.822Z,0.00
2017-11-18T19:11:32.839Z,0.00
2017-11-18T19:12:32.776Z,0.00
2017-11-18T19:13:32.744Z,0.00
2017-11-18T19:14:32.727Z,0.00
2017-11-18T19:15:32.705Z,0.00
2017-11-18T19:16:32.671Z,0.00
2017-11-18T19:17:32.643Z,0.00
2017-11-18T19:18:32.641Z,0.00
2017-11-18T19:19:32.608Z,0.00
2017-11-18T19:20:32.569Z,0.00
2017-11-18T19:21:32.549Z,0.00
2017-11-18T19:22:32.526Z,0.00
2017-11-18T19:23:32.499Z,0.00
2017-11-18T19:24:32.473Z,0.00
2017-11-18T19:25:32.447Z,0.00
2017-11-18T19:26:32.418Z,0.00
2017-11-18T19:27:32.395Z,0.00
2017-11-18T19:28:32.375Z,0.00
2017-11-18T19:29:32.348Z,0.00
2017-11-18T19:30:32.324Z,0.00
2017-11-18T19:31:32.294Z,0.00
2017-11-18T19:32:32.275Z,0.00
2017-11-18T19:33:32.247Z,0.00
2017-11-18T19:34:33.432Z,0.00
2017-11-18T19:35:32.199Z,0.00
2017-11-18T19:36:32.184Z,0.00
2017-11-18T19:37:32.149Z,0.00
2017-11-18T19:38:32.126Z,0.00
2017-11-18T19:39:32.119Z,0.00
2017-11-18T19:40:32.077Z,0.00
2017-11-18T19:41:32.053Z,0.00
2017-11-18T19:42:32.035Z,0.00
2017-11-18T19:43:32.000Z,0.00
2017-11-18T19:44:31.974Z,0.00
2017-11-18T19:45:31.943Z,0.00
2017-11-18T19:46:31.927Z,0.00
2017-11-18T19:47:31.904Z,0.00
2017-11-18T19:48:31.877Z,0.00
2017-11-18T19:49:31.849Z,0.00
2017-11-18T19:50:31.824Z,0.00
2017-11-18T19:51:31.803Z,0.00
2017-11-18T19:52:31.786Z,0.00
2017-11-18T19:53:31.743Z,0.00
2017-11-18T19:54:31.742Z,0.00
2017-11-18T19:55:31.696Z,0.00
2017-11-18T19:56:31.668Z,0.00
2017-11-18T19:57:31.660Z,0.00
2017-11-18T19:58:31.627Z,0.00
2017-11-18T19:59:31.590Z,0.00
2017-11-18T20:00:31.583Z,0.00
2017-11-18T20:01:31.557Z,0.00
2017-11-18T20:02:31.545Z,0.00
2017-11-18T20:03:31.490Z,0.00
2017-11-18T20:04:31.471Z,0.00
2017-11-18T20:05:31.450Z,0.00
2017-11-18T20:06:31.428Z,0.00
2017-11-18T20:07:31.398Z,0.00
2017-11-18T20:08:31.375Z,0.00
2017-11-18T20:09:31.345Z,0.00
2017-11-18T20:10:31.322Z,0.00
2017-11-18T20:11:31.310Z,0.00
2017-11-18T20:12:31.266Z,0.00
2017-11-18T20:13:31.257Z,0.00
2017-11-18T20:14:31.229Z,0.00
2017-11-18T20:15:31.206Z,0.00
2017-11-18T20:16:31.172Z,0.00
2017-11-18T20:17:31.137Z,0.00
2017-11-18T20:18:31.130Z,0.00
2017-11-18T20:19:31.087Z,0.00
2017-11-18T20:20:31.078Z,0.00
2017-11-18T20:21:31.039Z,0.00
2017-11-18T20:22:31.029Z,0.00
2017-11-18T20:23:31.009Z,0.00
2017-11-18T20:24:30.972Z,0.00
2017-11-18T20:25:30.959Z,0.00
2017-11-18T20:26:30.915Z,0.00
2017-11-18T20:27:30.898Z,0.00
2017-11-18T20:28:30.865Z,0.00
2017-11-18T20:29:30.853Z,0.00
2017-11-18T20:30:30.825Z,0.00
2017-11-18T20:31:30.787Z,0.00
2017-11-18T20:32:30.763Z,0.00
2017-11-18T20:33:30.749Z,0.00
2017-11-18T20:34:30.731Z,0.00
2017-11-18T20:35:30.689Z,0.00
2017-11-18T20:36:30.687Z,0.00
2017-11-18T20:37:30.653Z,0.00
2017-11-18T20:38:30.622Z,0.00
2017-11-18T20:39:30.594Z,0.00
2017-11-18T20:40:30.581Z,0.00
2017-11-18T20:41:30.549Z,0.00
2017-11-18T20:42:30.510Z,0.00
2017-11-18T20:43:30.494Z,0.00
2017-11-18T20:44:30.460Z,0.00
2017-11-18T20:45:30.447Z,0.00
2017-11-18T20:46:30.417Z,0.00
2017-11-18T20:47:30.379Z,0.00
2017-11-18T20:48:30.372Z,0.00
2017-11-18T20:49:30.337Z,0.00
2017-11-18T20:50:30.326Z,0.00
2017-11-18T20:51:30.285Z,0.00
2017-11-18T20:52:30.257Z,0.00
2017-11-18T20:53:30.246Z,0.00
2017-11-18T20:54:30.206Z,0.00
2017-11-18T20:55:30.183Z,0.00
2017-11-18T20:56:30.161Z,0.00
2017-11-18T20:57:30.148Z,0.00
2017-11-18T20:58:30.107Z,0.00
2017-11-18T20:59:30.081Z,0.00
2017-11-18T21:00:30.058Z,0.00
2017-11-18T21:01:30.031Z,0.00
2017-11-18T21:02:30.009Z,0.00
2017-11-18T21:03:29.981Z,0.00
2017-11-18T21:04:29.978Z,0.00
2017-11-18T21:05:29.945Z,0.00
2017-11-18T21:06:29.907Z,0.00
2017-11-18T21:07:29.885Z,0.00
2017-11-18T21:08:29.855Z,0.00
2017-11-18T21:09:29.837Z,0.00
2017-11-18T21:10:29.808Z,0.00
2017-11-18T21:11:29.797Z,0.00
2017-11-18T21:12:29.757Z,0.00
2017-11-18T21:13:29.737Z,0.00
2017-11-18T21:14:29.724Z,0.00
2017-11-18T21:15:29.689Z,0.00
2017-11-18T21:16:29.674Z,0.00
2017-11-18T21:17:29.644Z,0.00
2017-11-18T21:18:29.609Z,0.00
2017-11-18T21:19:29.581Z,0.00
2017-11-18T21:20:29.558Z,0.00
2017-11-18T21:21:29.535Z,0.00
2017-11-18T21:22:29.506Z,0.00
2017-11-18T21:23:29.486Z,0.00
2017-11-18T21:24:29.459Z,0.00
2017-11-18T21:25:29.430Z,0.00
2017-11-18T21:26:29.417Z,0.00
2017-11-18T21:27:29.379Z,0.00
2017-11-18T21:28:29.356Z,0.00
2017-11-18T21:29:29.329Z,0.00
2017-11-18T21:30:29.308Z,0.00
2017-11-18T21:31:29.291Z,0.00
2017-11-18T21:32:29.266Z,0.00
2017-11-18T21:33:29.240Z,0.00
2017-11-18T21:34:29.210Z,0.00
2017-11-18T21:35:29.191Z,0.00
2017-11-18T21:36:29.166Z,0.00
2017-11-18T21:37:29.126Z,0.00
2017-11-18T21:38:29.107Z,0.00
2017-11-18T21:39:29.099Z,0.00
2017-11-18T21:40:29.056Z,0.00
2017-11-18T21:41:29.044Z,0.00
2017-11-18T21:42:29.009Z,0.00
2017-11-18T21:43:28.977Z,0.00
2017-11-18T21:44:28.960Z,0.00
2017-11-18T21:45:28.929Z,0.00
2017-11-18T21:46:28.905Z,0.00
2017-11-18T21:47:28.888Z,0.00
2017-11-18T21:48:28.860Z,0.00
2017-11-18T21:49:28.833Z,0.00
2017-11-18T21:50:28.798Z,0.00
2017-11-18T21:51:28.785Z,0.00
2017-11-18T21:52:28.746Z,0.00
2017-11-18T21:53:28.728Z,0.00
2017-11-18T21:54:28.708Z,0.00
2017-11-18T21:55:28.680Z,0.00
2017-11-18T21:56:28.650Z,0.00
2017-11-18T21:57:28.638Z,0.00
2017-11-18T21:58:28.599Z,0.00
2017-11-18T21:59:28.572Z,0.00
2017-11-18T22:00:28.559Z,0.00
2017-11-18T22:01:28.525Z,0.00
2017-11-18T22:02:28.516Z,0.00
2017-11-18T22:03:28.482Z,0.00
2017-11-18T22:04:28.456Z,0.00
2017-11-18T22:05:28.431Z,0.00
2017-11-18T22:06:28.408Z,0.00
2017-11-18T22:07:28.379Z,0.00
2017-11-18T22:08:28.353Z,0.00
2017-11-18T22:09:28.336Z,0.00
2017-11-18T22:10:28.305Z,0.00
2017-11-18T22:11:28.270Z,0.00
2017-11-18T22:12:28.251Z,0.00
2017-11-18T22:13:28.220Z,0.00
2017-11-18T22:14:28.219Z,0.00
2017-11-18T22:15:28.176Z,0.00
2017-11-18T22:16:28.145Z,0.00
2017-11-18T22:17:28.117Z,0.00
2017-11-18T22:18:28.101Z,0.00
2017-11-18T22:19:28.069Z,0.00
2017-11-18T22:20:28.042Z,0.00
2017-11-18T22:21:28.025Z,0.00
2017-11-18T22:22:27.995Z,0.00
2017-11-18T22:23:27.968Z,0.00
2017-11-18T22:24:27.954Z,0.00
2017-11-18T22:25:27.918Z,0.00
2017-11-18T22:26:27.892Z,0.00
2017-11-18T22:27:27.869Z,0.00
2017-11-18T22:28:27.841Z,0.00
2017-11-18T22:29:27.819Z,0.00
2017-11-18T22:30:27.797Z,0.00
2017-11-18T22:31:27.773Z,0.00
2017-11-18T22:32:27.739Z,0.00
2017-11-18T22:33:27.730Z,0.00
2017-11-18T22:34:27.693Z,0.00
2017-11-18T22:35:27.665Z,0.00
2017-11-18T22:36:27.642Z,0.00
2017-11-18T22:37:27.613Z,0.00
2017-11-18T22:38:27.616Z,0.00
2017-11-18T22:39:27.582Z,0.00
2017-11-18T22:40:27.538Z,0.00
2017-11-18T22:41:27.517Z,0.00
2017-11-18T22:42:27.493Z,0.00
2017-11-18T22:43:27.462Z,0.00
2017-11-18T22:44:27.442Z,0.00
2017-11-18T22:45:27.413Z,0.00
2017-11-18T22:46:27.388Z,0.00
2017-11-18T22:47:27.369Z,0.00
2017-11-18T22:48:27.334Z,0.00
2017-11-18T22:49:27.313Z,0.00
2017-11-18T22:50:27.287Z,0.00
2017-11-18T22:51:27.265Z,0.00
2017-11-18T22:52:27.241Z,0.00
2017-11-18T22:53:27.220Z,0.00
2017-11-18T22:54:27.188Z,0.00
2017-11-18T22:55:27.169Z,0.00
2017-11-18T22:56:27.140Z,0.00
2017-11-18T22:57:27.115Z,0.00
2017-11-18T22:58:27.090Z,0.00
2017-11-18T22:59:27.063Z,0.00
2017-11-18T23:00:27.036Z,0.00
2017-11-18T23:01:27.010Z,0.00
2017-11-18T23:02:26.987Z,0.00
2017-11-18T23:03:26.962Z,0.00
2017-11-18T23:04:26.929Z,0.00
2017-11-18T23:05:26.909Z,0.00
2017-11-18T23:06:26.881Z,0.00
2017-11-18T23:07:26.856Z,0.00
2017-11-18T23:08:26.842Z,0.00
2017-11-18T23:09:26.807Z,0.00
2017-11-18T23:10:26.788Z,0.00
2017-11-18T23:11:26.754Z,0.00
2017-11-18T23:12:26.736Z,0.00
2017-11-18T23:13:26.707Z,0.00
2017-11-18T23:14:26.681Z,0.00
2017-11-18T23:15:26.653Z,0.00
2017-11-18T23:16:26.627Z,0.00
2017-11-18T23:17:26.602Z,0.00
2017-11-18T23:18:26.588Z,0.00
2017-11-18T23:19:26.563Z,0.00
2017-11-18T23:20:26.529Z,0.00
2017-11-18T23:21:26.503Z,0.00
2017-11-18T23:22:26.482Z,0.00
2017-11-18T23:23:26.454Z,0.00
2017-11-18T23:24:26.424Z,0.00
2017-11-18T23:25:26.406Z,0.00
2017-11-18T23:26:26.399Z,0.00
2017-11-18T23:27:26.362Z,0.00
2017-11-18T23:28:26.345Z,0.00
2017-11-18T23:29:26.328Z,0.00
2017-11-18T23:30:26.304Z,0.00
2017-11-18T23:31:26.281Z,0.00
2017-11-18T23:32:26.262Z,0.00
2017-11-18T23:33:26.247Z,0.00
2017-11-18T23:34:26.221Z,0.00
2017-11-18T23:35:26.200Z,0.00
2017-11-18T23:36:26.186Z,0.00
2017-11-18T23:37:26.167Z,0.00
2017-11-18T23:38:26.144Z,0.00
2017-11-18T23:39:26.124Z,0.00
2017-11-18T23:40:26.110Z,0.00
2017-11-18T23:41:26.087Z,0.00
2017-11-18T23:42:26.075Z,0.00
2017-11-18T23:43:26.040Z,0.00
2017-11-18T23:44:26.023Z,0.00
2017-11-18T23:45:26.010Z,0.00
2017-11-18T23:46:25.983Z,0.00
2017-11-18T23:47:25.980Z,0.00
2017-11-18T23:48:25.939Z,0.00
2017-11-18T23:49:25.928Z,0.00
2017-11-18T23:50:25.901Z,0.00
2017-11-18T23:51:25.881Z,0.00
2017-11-18T23:52:25.860Z,0.00
2017-11-18T23:53:25.844Z,0.00
2017-11-18T23:54:25.834Z,0.00
2017-11-18T23:55:25.813Z,0.00
2017-11-18T23:56:25.782Z,0.00
2017-11-18T23:57:25.759Z,0.00
2017-11-18T23:58:25.740Z,0.00
2017-11-18T23:59:25.727Z,0.00
